sensor_id;sensor_type;location;lat;lon;timestamp;temperature;humidity
15231;DHT22;32569;51.762;8.564;2022-10-17T00:00:36;14.30;99.90
15231;DHT22;32569;51.762;8.564;2022-10-17T00:03:03;14.30;99.90
15231;DHT22;32569;51.762;8.564;2022-10-17T00:05:31;14.30;99.90
15231;DHT22;32569;51.762;8.564;2022-10-17T00:07:58;14.20;99.90
15231;DHT22;32569;51.762;8.564;2022-10-17T00:10:25;14.30;99.90
15231;DHT22;32569;51.762;8.564;2022-10-17T00:12:52;14.30;99.90
15231;DHT22;32569;51.762;8.564;2022-10-17T00:15:19;14.40;99.90
15231;DHT22;32569;51.762;8.564;2022-10-17T00:17:47;14.40;99.90
15231;DHT22;32569;51.762;8.564;2022-10-17T00:20:14;14.40;99.90
15231;DHT22;32569;51.762;8.564;2022-10-17T00:22:42;14.40;99.90
15231;DHT22;32569;51.762;8.564;2022-10-17T00:25:09;14.40;99.90
15231;DHT22;32569;51.762;8.564;2022-10-17T00:27:37;14.40;99.90
15231;DHT22;32569;51.762;8.564;2022-10-17T00:30:06;14.40;99.90
15231;DHT22;32569;51.762;8.564;2022-10-17T00:32:33;14.30;99.90
15231;DHT22;32569;51.762;8.564;2022-10-17T00:35:00;14.30;99.90
15231;DHT22;32569;51.762;8.564;2022-10-17T00:37:28;14.30;99.90
15231;DHT22;32569;51.762;8.564;2022-10-17T00:39:56;14.30;99.90
15231;DHT22;32569;51.762;8.564;2022-10-17T00:42:23;14.30;99.90
15231;DHT22;32569;51.762;8.564;2022-10-17T00:45:12;14.30;99.90
15231;DHT22;32569;51.762;8.564;2022-10-17T00:47:40;14.30;99.90
15231;DHT22;32569;51.762;8.564;2022-10-17T00:50:08;14.20;99.90
15231;DHT22;32569;51.762;8.564;2022-10-17T00:52:36;14.20;99.90
15231;DHT22;32569;51.762;8.564;2022-10-17T00:55:08;14.20;99.90
15231;DHT22;32569;51.762;8.564;2022-10-17T00:57:35;14.20;99.90
15231;DHT22;32569;51.762;8.564;2022-10-17T01:00:06;14.20;99.90
15231;DHT22;32569;51.762;8.564;2022-10-17T01:02:33;14.20;99.90
15231;DHT22;32569;51.762;8.564;2022-10-17T01:05:00;14.20;99.90
15231;DHT22;32569;51.762;8.564;2022-10-17T01:07:27;14.20;99.90
15231;DHT22;32569;51.762;8.564;2022-10-17T01:09:55;14.20;99.90
15231;DHT22;32569;51.762;8.564;2022-10-17T01:12:24;14.20;99.90
15231;DHT22;32569;51.762;8.564;2022-10-17T01:15:02;14.20;99.90
15231;DHT22;32569;51.762;8.564;2022-10-17T01:17:38;14.20;99.90
15231;DHT22;32569;51.762;8.564;2022-10-17T01:20:34;14.20;99.90
15231;DHT22;32569;51.762;8.564;2022-10-17T01:23:22;14.20;99.90
15231;DHT22;32569;51.762;8.564;2022-10-17T01:25:55;14.20;99.90
15231;DHT22;32569;51.762;8.564;2022-10-17T01:29:14;14.20;99.90
15231;DHT22;32569;51.762;8.564;2022-10-17T01:31:53;14.20;99.90
15231;DHT22;32569;51.762;8.564;2022-10-17T01:34:24;14.10;99.90
15231;DHT22;32569;51.762;8.564;2022-10-17T01:37:00;14.10;99.90
15231;DHT22;32569;51.762;8.564;2022-10-17T01:39:35;14.10;99.90
15231;DHT22;32569;51.762;8.564;2022-10-17T01:42:11;14.10;99.90
15231;DHT22;32569;51.762;8.564;2022-10-17T01:44:43;14.10;99.90
15231;DHT22;32569;51.762;8.564;2022-10-17T01:47:17;14.10;99.90
15231;DHT22;32569;51.762;8.564;2022-10-17T01:49:46;14.00;99.90
15231;DHT22;32569;51.762;8.564;2022-10-17T01:52:19;14.00;99.90
15231;DHT22;32569;51.762;8.564;2022-10-17T01:54:50;14.00;99.90
15231;DHT22;32569;51.762;8.564;2022-10-17T01:57:25;14.00;99.90
15231;DHT22;32569;51.762;8.564;2022-10-17T01:59:55;14.00;99.90
15231;DHT22;32569;51.762;8.564;2022-10-17T02:02:24;13.90;99.90
15231;DHT22;32569;51.762;8.564;2022-10-17T02:04:52;13.90;99.90
15231;DHT22;32569;51.762;8.564;2022-10-17T02:07:21;13.90;99.90
15231;DHT22;32569;51.762;8.564;2022-10-17T02:09:47;13.90;99.90
15231;DHT22;32569;51.762;8.564;2022-10-17T02:12:34;13.80;99.90
15231;DHT22;32569;51.762;8.564;2022-10-17T02:15:13;13.80;99.90
15231;DHT22;32569;51.762;8.564;2022-10-17T02:17:50;13.80;99.90
15231;DHT22;32569;51.762;8.564;2022-10-17T02:20:24;13.80;99.90
15231;DHT22;32569;51.762;8.564;2022-10-17T02:22:56;13.70;99.90
15231;DHT22;32569;51.762;8.564;2022-10-17T02:25:32;13.60;99.90
15231;DHT22;32569;51.762;8.564;2022-10-17T02:28:08;13.60;99.90
15231;DHT22;32569;51.762;8.564;2022-10-17T02:30:42;13.70;99.90
15231;DHT22;32569;51.762;8.564;2022-10-17T02:33:12;13.70;99.90
15231;DHT22;32569;51.762;8.564;2022-10-17T02:35:42;13.60;99.90
15231;DHT22;32569;51.762;8.564;2022-10-17T02:38:11;13.50;99.90
15231;DHT22;32569;51.762;8.564;2022-10-17T02:40:39;13.50;99.90
15231;DHT22;32569;51.762;8.564;2022-10-17T02:43:07;13.50;99.90
15231;DHT22;32569;51.762;8.564;2022-10-17T02:45:36;13.60;99.90
15231;DHT22;32569;51.762;8.564;2022-10-17T02:48:05;13.70;99.90
15231;DHT22;32569;51.762;8.564;2022-10-17T02:50:43;13.70;99.90
15231;DHT22;32569;51.762;8.564;2022-10-17T02:53:16;13.80;99.90
15231;DHT22;32569;51.762;8.564;2022-10-17T02:55:51;13.80;99.90
15231;DHT22;32569;51.762;8.564;2022-10-17T02:58:24;13.80;99.90
15231;DHT22;32569;51.762;8.564;2022-10-17T03:00:52;13.80;99.90
15231;DHT22;32569;51.762;8.564;2022-10-17T03:03:21;13.80;99.90
15231;DHT22;32569;51.762;8.564;2022-10-17T03:05:49;13.80;99.90
15231;DHT22;32569;51.762;8.564;2022-10-17T03:08:16;13.70;99.90
15231;DHT22;32569;51.762;8.564;2022-10-17T03:10:43;13.70;99.90
15231;DHT22;32569;51.762;8.564;2022-10-17T03:13:10;13.60;99.90
15231;DHT22;32569;51.762;8.564;2022-10-17T03:15:37;13.60;99.90
15231;DHT22;32569;51.762;8.564;2022-10-17T03:18:03;13.60;99.90
15231;DHT22;32569;51.762;8.564;2022-10-17T03:20:30;13.60;99.90
15231;DHT22;32569;51.762;8.564;2022-10-17T03:22:58;13.60;99.90
15231;DHT22;32569;51.762;8.564;2022-10-17T03:25:25;13.50;99.90
15231;DHT22;32569;51.762;8.564;2022-10-17T03:27:52;13.50;99.90
15231;DHT22;32569;51.762;8.564;2022-10-17T03:30:19;13.40;99.90
15231;DHT22;32569;51.762;8.564;2022-10-17T03:32:46;13.40;99.90
15231;DHT22;32569;51.762;8.564;2022-10-17T03:35:13;13.40;99.90
15231;DHT22;32569;51.762;8.564;2022-10-17T03:37:39;13.40;99.90
15231;DHT22;32569;51.762;8.564;2022-10-17T03:40:08;13.40;99.90
15231;DHT22;32569;51.762;8.564;2022-10-17T03:42:35;13.40;99.90
15231;DHT22;32569;51.762;8.564;2022-10-17T03:45:02;13.30;99.90
15231;DHT22;32569;51.762;8.564;2022-10-17T03:47:29;13.40;99.90
15231;DHT22;32569;51.762;8.564;2022-10-17T03:49:56;13.40;99.90
15231;DHT22;32569;51.762;8.564;2022-10-17T03:52:22;13.40;99.90
15231;DHT22;32569;51.762;8.564;2022-10-17T03:54:50;13.40;99.90
15231;DHT22;32569;51.762;8.564;2022-10-17T03:57:18;13.40;99.90
15231;DHT22;32569;51.762;8.564;2022-10-17T03:59:45;13.40;99.90
15231;DHT22;32569;51.762;8.564;2022-10-17T04:02:11;13.50;99.90
15231;DHT22;32569;51.762;8.564;2022-10-17T04:04:38;13.50;99.90
15231;DHT22;32569;51.762;8.564;2022-10-17T04:07:05;13.50;99.90
15231;DHT22;32569;51.762;8.564;2022-10-17T04:09:31;13.50;99.90
15231;DHT22;32569;51.762;8.564;2022-10-17T04:11:58;13.40;99.90
15231;DHT22;32569;51.762;8.564;2022-10-17T04:14:26;13.40;99.90
15231;DHT22;32569;51.762;8.564;2022-10-17T04:16:53;13.60;99.90
15231;DHT22;32569;51.762;8.564;2022-10-17T04:19:20;13.60;99.90
15231;DHT22;32569;51.762;8.564;2022-10-17T04:21:47;13.60;99.90
15231;DHT22;32569;51.762;8.564;2022-10-17T04:24:13;13.70;99.90
15231;DHT22;32569;51.762;8.564;2022-10-17T04:26:40;13.70;99.90
15231;DHT22;32569;51.762;8.564;2022-10-17T04:29:07;13.60;99.90
15231;DHT22;32569;51.762;8.564;2022-10-17T04:31:35;13.60;99.90
15231;DHT22;32569;51.762;8.564;2022-10-17T04:34:02;13.60;99.90
15231;DHT22;32569;51.762;8.564;2022-10-17T04:36:28;13.60;99.90
15231;DHT22;32569;51.762;8.564;2022-10-17T04:38:55;13.60;99.90
15231;DHT22;32569;51.762;8.564;2022-10-17T04:41:22;13.70;99.90
15231;DHT22;32569;51.762;8.564;2022-10-17T04:43:50;13.70;99.90
15231;DHT22;32569;51.762;8.564;2022-10-17T04:46:17;13.70;99.90
15231;DHT22;32569;51.762;8.564;2022-10-17T04:48:45;13.60;99.90
15231;DHT22;32569;51.762;8.564;2022-10-17T04:51:12;13.70;99.90
15231;DHT22;32569;51.762;8.564;2022-10-17T04:53:41;13.70;99.90
15231;DHT22;32569;51.762;8.564;2022-10-17T04:56:09;13.70;99.90
15231;DHT22;32569;51.762;8.564;2022-10-17T04:58:36;13.80;99.90
15231;DHT22;32569;51.762;8.564;2022-10-17T05:01:06;13.70;99.90
15231;DHT22;32569;51.762;8.564;2022-10-17T05:03:34;13.70;99.90
15231;DHT22;32569;51.762;8.564;2022-10-17T05:06:07;13.60;99.90
15231;DHT22;32569;51.762;8.564;2022-10-17T05:08:34;13.70;99.90
15231;DHT22;32569;51.762;8.564;2022-10-17T05:11:01;13.60;99.90
15231;DHT22;32569;51.762;8.564;2022-10-17T05:13:28;13.60;99.90
15231;DHT22;32569;51.762;8.564;2022-10-17T05:15:58;13.60;99.90
15231;DHT22;32569;51.762;8.564;2022-10-17T05:18:25;13.60;99.90
15231;DHT22;32569;51.762;8.564;2022-10-17T05:20:52;13.50;99.90
15231;DHT22;32569;51.762;8.564;2022-10-17T05:23:20;13.50;99.90
15231;DHT22;32569;51.762;8.564;2022-10-17T05:25:52;13.40;99.90
15231;DHT22;32569;51.762;8.564;2022-10-17T05:28:19;13.50;99.90
15231;DHT22;32569;51.762;8.564;2022-10-17T05:30:45;13.50;99.90
15231;DHT22;32569;51.762;8.564;2022-10-17T05:33:12;13.50;99.90
15231;DHT22;32569;51.762;8.564;2022-10-17T05:35:39;13.50;99.90
15231;DHT22;32569;51.762;8.564;2022-10-17T05:38:05;13.50;99.90
15231;DHT22;32569;51.762;8.564;2022-10-17T05:40:33;13.40;99.90
15231;DHT22;32569;51.762;8.564;2022-10-17T05:43:00;13.50;99.90
15231;DHT22;32569;51.762;8.564;2022-10-17T05:45:27;13.50;99.90
15231;DHT22;32569;51.762;8.564;2022-10-17T05:47:54;13.60;99.90
15231;DHT22;32569;51.762;8.564;2022-10-17T05:50:20;13.60;99.90
15231;DHT22;32569;51.762;8.564;2022-10-17T05:52:52;13.70;99.90
15231;DHT22;32569;51.762;8.564;2022-10-17T05:55:19;13.70;99.90
15231;DHT22;32569;51.762;8.564;2022-10-17T05:57:47;13.70;99.90
15231;DHT22;32569;51.762;8.564;2022-10-17T06:00:14;13.70;99.90
15231;DHT22;32569;51.762;8.564;2022-10-17T06:02:41;13.70;99.90
15231;DHT22;32569;51.762;8.564;2022-10-17T06:05:08;13.80;99.90
15231;DHT22;32569;51.762;8.564;2022-10-17T06:07:35;13.80;99.90
15231;DHT22;32569;51.762;8.564;2022-10-17T06:10:02;13.80;99.90
15231;DHT22;32569;51.762;8.564;2022-10-17T06:12:29;13.90;99.90
15231;DHT22;32569;51.762;8.564;2022-10-17T06:14:57;13.90;99.90
15231;DHT22;32569;51.762;8.564;2022-10-17T06:17:24;14.00;99.90
15231;DHT22;32569;51.762;8.564;2022-10-17T06:19:52;14.00;99.90
15231;DHT22;32569;51.762;8.564;2022-10-17T06:22:19;14.10;99.90
15231;DHT22;32569;51.762;8.564;2022-10-17T06:24:46;14.20;99.90
15231;DHT22;32569;51.762;8.564;2022-10-17T06:27:12;14.40;99.90
15231;DHT22;32569;51.762;8.564;2022-10-17T06:29:39;14.40;99.90
15231;DHT22;32569;51.762;8.564;2022-10-17T06:32:07;14.40;99.90
15231;DHT22;32569;51.762;8.564;2022-10-17T06:34:34;14.40;99.90
15231;DHT22;32569;51.762;8.564;2022-10-17T06:37:01;14.50;99.90
15231;DHT22;32569;51.762;8.564;2022-10-17T06:39:28;14.60;99.90
15231;DHT22;32569;51.762;8.564;2022-10-17T06:41:58;14.60;99.90
15231;DHT22;32569;51.762;8.564;2022-10-17T06:44:25;14.70;99.90
15231;DHT22;32569;51.762;8.564;2022-10-17T06:46:55;14.80;99.90
15231;DHT22;32569;51.762;8.564;2022-10-17T06:49:23;14.80;99.90
15231;DHT22;32569;51.762;8.564;2022-10-17T06:51:49;14.90;99.90
15231;DHT22;32569;51.762;8.564;2022-10-17T06:54:16;15.00;99.90
15231;DHT22;32569;51.762;8.564;2022-10-17T06:56:43;15.10;99.90
15231;DHT22;32569;51.762;8.564;2022-10-17T06:59:10;15.20;99.90
15231;DHT22;32569;51.762;8.564;2022-10-17T07:01:37;15.20;99.90
15231;DHT22;32569;51.762;8.564;2022-10-17T07:04:03;15.20;99.90
15231;DHT22;32569;51.762;8.564;2022-10-17T07:06:32;15.30;99.90
15231;DHT22;32569;51.762;8.564;2022-10-17T07:08:59;15.30;99.90
15231;DHT22;32569;51.762;8.564;2022-10-17T07:11:27;15.20;99.90
15231;DHT22;32569;51.762;8.564;2022-10-17T07:13:53;15.30;99.90
15231;DHT22;32569;51.762;8.564;2022-10-17T07:16:20;15.30;99.90
15231;DHT22;32569;51.762;8.564;2022-10-17T07:18:48;15.40;99.90
15231;DHT22;32569;51.762;8.564;2022-10-17T07:21:15;15.40;99.90
15231;DHT22;32569;51.762;8.564;2022-10-17T07:23:43;15.40;99.90
15231;DHT22;32569;51.762;8.564;2022-10-17T07:26:12;15.40;99.90
15231;DHT22;32569;51.762;8.564;2022-10-17T07:28:40;15.50;99.90
15231;DHT22;32569;51.762;8.564;2022-10-17T07:31:09;15.50;99.90
15231;DHT22;32569;51.762;8.564;2022-10-17T07:33:36;15.50;99.90
15231;DHT22;32569;51.762;8.564;2022-10-17T07:36:04;15.60;99.90
15231;DHT22;32569;51.762;8.564;2022-10-17T07:38:31;15.60;99.90
15231;DHT22;32569;51.762;8.564;2022-10-17T07:41:01;15.60;99.90
15231;DHT22;32569;51.762;8.564;2022-10-17T07:43:28;15.60;99.90
15231;DHT22;32569;51.762;8.564;2022-10-17T07:45:55;15.70;99.90
15231;DHT22;32569;51.762;8.564;2022-10-17T07:48:23;15.70;99.90
15231;DHT22;32569;51.762;8.564;2022-10-17T07:50:50;15.80;99.90
15231;DHT22;32569;51.762;8.564;2022-10-17T07:53:17;15.80;99.90
15231;DHT22;32569;51.762;8.564;2022-10-17T07:55:44;16.00;99.90
15231;DHT22;32569;51.762;8.564;2022-10-17T07:58:14;16.10;99.90
15231;DHT22;32569;51.762;8.564;2022-10-17T08:00:41;16.20;99.90
15231;DHT22;32569;51.762;8.564;2022-10-17T08:03:09;16.40;99.90
15231;DHT22;32569;51.762;8.564;2022-10-17T08:05:36;16.50;99.90
15231;DHT22;32569;51.762;8.564;2022-10-17T08:08:03;16.70;99.90
15231;DHT22;32569;51.762;8.564;2022-10-17T08:10:30;16.70;99.90
15231;DHT22;32569;51.762;8.564;2022-10-17T08:12:57;16.80;99.90
15231;DHT22;32569;51.762;8.564;2022-10-17T08:15:25;17.00;99.90
15231;DHT22;32569;51.762;8.564;2022-10-17T08:17:52;17.00;99.90
15231;DHT22;32569;51.762;8.564;2022-10-17T08:20:20;17.10;99.90
15231;DHT22;32569;51.762;8.564;2022-10-17T08:22:50;17.20;99.90
15231;DHT22;32569;51.762;8.564;2022-10-17T08:25:17;17.30;99.90
15231;DHT22;32569;51.762;8.564;2022-10-17T08:27:44;17.40;99.90
15231;DHT22;32569;51.762;8.564;2022-10-17T08:30:11;17.50;99.90
15231;DHT22;32569;51.762;8.564;2022-10-17T08:32:40;17.60;99.90
15231;DHT22;32569;51.762;8.564;2022-10-17T08:35:07;17.70;99.90
15231;DHT22;32569;51.762;8.564;2022-10-17T08:37:34;17.80;99.90
15231;DHT22;32569;51.762;8.564;2022-10-17T08:40:00;17.90;99.90
15231;DHT22;32569;51.762;8.564;2022-10-17T08:42:51;18.00;99.90
15231;DHT22;32569;51.762;8.564;2022-10-17T08:45:26;18.00;99.90
15231;DHT22;32569;51.762;8.564;2022-10-17T08:47:58;18.10;99.90
15231;DHT22;32569;51.762;8.564;2022-10-17T08:50:30;18.10;99.90
15231;DHT22;32569;51.762;8.564;2022-10-17T08:53:03;18.20;99.90
15231;DHT22;32569;51.762;8.564;2022-10-17T08:55:35;18.30;99.90
15231;DHT22;32569;51.762;8.564;2022-10-17T08:58:02;18.30;99.90
15231;DHT22;32569;51.762;8.564;2022-10-17T09:00:30;18.40;99.90
15231;DHT22;32569;51.762;8.564;2022-10-17T09:03:08;18.50;99.90
15231;DHT22;32569;51.762;8.564;2022-10-17T09:05:43;18.60;99.90
15231;DHT22;32569;51.762;8.564;2022-10-17T09:08:26;18.60;99.90
15231;DHT22;32569;51.762;8.564;2022-10-17T09:10:57;18.70;99.90
15231;DHT22;32569;51.762;8.564;2022-10-17T09:13:48;18.80;99.90
15231;DHT22;32569;51.762;8.564;2022-10-17T09:16:27;18.90;99.90
15231;DHT22;32569;51.762;8.564;2022-10-17T09:19:03;19.00;99.90
15231;DHT22;32569;51.762;8.564;2022-10-17T09:21:41;19.10;99.90
15231;DHT22;32569;51.762;8.564;2022-10-17T09:24:14;19.30;99.90
15231;DHT22;32569;51.762;8.564;2022-10-17T09:26:44;19.40;99.90
15231;DHT22;32569;51.762;8.564;2022-10-17T09:29:19;19.50;99.90
15231;DHT22;32569;51.762;8.564;2022-10-17T09:31:52;19.70;99.90
15231;DHT22;32569;51.762;8.564;2022-10-17T09:34:22;19.70;99.90
15231;DHT22;32569;51.762;8.564;2022-10-17T09:36:50;19.80;99.90
15231;DHT22;32569;51.762;8.564;2022-10-17T09:39:19;19.80;99.90
15231;DHT22;32569;51.762;8.564;2022-10-17T09:41:50;19.90;99.90
15231;DHT22;32569;51.762;8.564;2022-10-17T09:44:19;20.10;99.90
15231;DHT22;32569;51.762;8.564;2022-10-17T09:47:00;20.10;99.90
15231;DHT22;32569;51.762;8.564;2022-10-17T09:49:33;20.00;99.90
15231;DHT22;32569;51.762;8.564;2022-10-17T09:52:01;20.00;99.90
15231;DHT22;32569;51.762;8.564;2022-10-17T09:54:38;19.90;99.90
15231;DHT22;32569;51.762;8.564;2022-10-17T09:57:07;19.90;99.90
15231;DHT22;32569;51.762;8.564;2022-10-17T09:59:36;20.10;99.90
15231;DHT22;32569;51.762;8.564;2022-10-17T10:02:21;20.10;99.90
15231;DHT22;32569;51.762;8.564;2022-10-17T10:04:58;20.20;99.90
15231;DHT22;32569;51.762;8.564;2022-10-17T10:07:27;20.10;99.90
15231;DHT22;32569;51.762;8.564;2022-10-17T10:09:54;20.10;99.90
15231;DHT22;32569;51.762;8.564;2022-10-17T10:12:23;20.10;99.90
15231;DHT22;32569;51.762;8.564;2022-10-17T10:14:50;20.20;99.90
15231;DHT22;32569;51.762;8.564;2022-10-17T10:17:35;20.20;99.90
15231;DHT22;32569;51.762;8.564;2022-10-17T10:20:26;20.40;99.90
15231;DHT22;32569;51.762;8.564;2022-10-17T10:23:10;20.40;99.90
15231;DHT22;32569;51.762;8.564;2022-10-17T10:25:37;20.30;99.90
15231;DHT22;32569;51.762;8.564;2022-10-17T10:28:15;20.40;99.90
15231;DHT22;32569;51.762;8.564;2022-10-17T10:30:46;20.50;99.90
15231;DHT22;32569;51.762;8.564;2022-10-17T10:33:14;20.70;99.90
15231;DHT22;32569;51.762;8.564;2022-10-17T10:35:42;20.80;99.90
15231;DHT22;32569;51.762;8.564;2022-10-17T10:38:17;20.70;99.90
15231;DHT22;32569;51.762;8.564;2022-10-17T10:40:45;20.70;99.90
15231;DHT22;32569;51.762;8.564;2022-10-17T10:43:21;20.70;99.90
15231;DHT22;32569;51.762;8.564;2022-10-17T10:45:48;20.70;99.90
15231;DHT22;32569;51.762;8.564;2022-10-17T10:48:20;20.80;99.90
15231;DHT22;32569;51.762;8.564;2022-10-17T10:50:51;20.70;99.90
15231;DHT22;32569;51.762;8.564;2022-10-17T10:53:30;21.00;99.90
15231;DHT22;32569;51.762;8.564;2022-10-17T10:56:00;21.20;99.90
15231;DHT22;32569;51.762;8.564;2022-10-17T10:58:36;21.20;99.90
15231;DHT22;32569;51.762;8.564;2022-10-17T11:01:10;21.20;99.90
15231;DHT22;32569;51.762;8.564;2022-10-17T11:03:40;21.30;99.90
15231;DHT22;32569;51.762;8.564;2022-10-17T11:06:15;21.30;99.90
15231;DHT22;32569;51.762;8.564;2022-10-17T11:08:48;21.40;99.90
15231;DHT22;32569;51.762;8.564;2022-10-17T11:11:19;21.50;99.90
15231;DHT22;32569;51.762;8.564;2022-10-17T11:13:55;21.50;99.90
15231;DHT22;32569;51.762;8.564;2022-10-17T11:16:30;21.50;99.90
15231;DHT22;32569;51.762;8.564;2022-10-17T11:19:03;21.40;99.90
15231;DHT22;32569;51.762;8.564;2022-10-17T11:21:40;21.40;99.90
15231;DHT22;32569;51.762;8.564;2022-10-17T11:24:15;21.30;99.90
15231;DHT22;32569;51.762;8.564;2022-10-17T11:26:49;21.30;99.90
15231;DHT22;32569;51.762;8.564;2022-10-17T11:29:19;21.20;99.90
15231;DHT22;32569;51.762;8.564;2022-10-17T11:31:50;21.10;99.90
15231;DHT22;32569;51.762;8.564;2022-10-17T11:34:20;21.10;99.90
15231;DHT22;32569;51.762;8.564;2022-10-17T11:36:53;21.20;99.90
15231;DHT22;32569;51.762;8.564;2022-10-17T11:39:27;21.10;99.90
15231;DHT22;32569;51.762;8.564;2022-10-17T11:41:59;21.10;99.90
15231;DHT22;32569;51.762;8.564;2022-10-17T11:44:31;21.10;99.90
15231;DHT22;32569;51.762;8.564;2022-10-17T11:47:04;21.20;99.90
15231;DHT22;32569;51.762;8.564;2022-10-17T11:49:35;21.20;99.90
15231;DHT22;32569;51.762;8.564;2022-10-17T11:52:15;21.30;99.90
15231;DHT22;32569;51.762;8.564;2022-10-17T11:54:49;21.30;99.90
15231;DHT22;32569;51.762;8.564;2022-10-17T11:57:34;21.30;99.90
15231;DHT22;32569;51.762;8.564;2022-10-17T12:00:36;21.30;99.90
15231;DHT22;32569;51.762;8.564;2022-10-17T12:03:11;21.30;99.90
15231;DHT22;32569;51.762;8.564;2022-10-17T12:05:49;21.30;99.90
15231;DHT22;32569;51.762;8.564;2022-10-17T12:08:24;21.20;99.90
15231;DHT22;32569;51.762;8.564;2022-10-17T12:10:55;21.20;99.90
15231;DHT22;32569;51.762;8.564;2022-10-17T12:13:50;21.20;99.90
15231;DHT22;32569;51.762;8.564;2022-10-17T12:16:47;21.20;99.90
15231;DHT22;32569;51.762;8.564;2022-10-17T12:19:33;21.10;99.90
15231;DHT22;32569;51.762;8.564;2022-10-17T12:22:14;21.10;99.90
15231;DHT22;32569;51.762;8.564;2022-10-17T12:24:53;21.10;99.90
15231;DHT22;32569;51.762;8.564;2022-10-17T12:27:31;21.10;99.90
15231;DHT22;32569;51.762;8.564;2022-10-17T12:30:00;21.20;99.90
15231;DHT22;32569;51.762;8.564;2022-10-17T12:32:27;21.10;99.90
15231;DHT22;32569;51.762;8.564;2022-10-17T12:34:55;21.20;99.90
15231;DHT22;32569;51.762;8.564;2022-10-17T12:40:53;21.20;99.90
15231;DHT22;32569;51.762;8.564;2022-10-17T12:43:51;21.20;99.90
15231;DHT22;32569;51.762;8.564;2022-10-17T12:46:47;21.20;99.90
15231;DHT22;32569;51.762;8.564;2022-10-17T12:49:39;21.20;99.90
15231;DHT22;32569;51.762;8.564;2022-10-17T12:52:49;21.10;99.90
15231;DHT22;32569;51.762;8.564;2022-10-17T12:55:22;21.10;99.90
15231;DHT22;32569;51.762;8.564;2022-10-17T12:57:54;21.10;99.90
15231;DHT22;32569;51.762;8.564;2022-10-17T13:00:30;21.10;99.90
15231;DHT22;32569;51.762;8.564;2022-10-17T13:03:05;21.00;99.90
15231;DHT22;32569;51.762;8.564;2022-10-17T13:05:34;20.90;99.90
15231;DHT22;32569;51.762;8.564;2022-10-17T13:08:04;20.90;99.90
15231;DHT22;32569;51.762;8.564;2022-10-17T13:10:35;20.90;99.90
15231;DHT22;32569;51.762;8.564;2022-10-17T13:13:09;20.80;99.90
15231;DHT22;32569;51.762;8.564;2022-10-17T13:15:37;20.80;99.90
15231;DHT22;32569;51.762;8.564;2022-10-17T13:18:04;20.70;99.90
15231;DHT22;32569;51.762;8.564;2022-10-17T13:20:31;20.70;99.90
15231;DHT22;32569;51.762;8.564;2022-10-17T13:22:58;20.60;99.90
15231;DHT22;32569;51.762;8.564;2022-10-17T13:25:26;20.60;99.90
15231;DHT22;32569;51.762;8.564;2022-10-17T13:28:05;20.60;99.90
15231;DHT22;32569;51.762;8.564;2022-10-17T13:30:34;20.60;99.90
15231;DHT22;32569;51.762;8.564;2022-10-17T13:33:02;20.70;99.90
15231;DHT22;32569;51.762;8.564;2022-10-17T13:35:32;20.70;99.90
15231;DHT22;32569;51.762;8.564;2022-10-17T13:38:01;20.70;99.90
15231;DHT22;32569;51.762;8.564;2022-10-17T13:40:38;20.70;99.90
15231;DHT22;32569;51.762;8.564;2022-10-17T13:43:14;20.70;99.90
15231;DHT22;32569;51.762;8.564;2022-10-17T13:45:45;20.80;99.90
15231;DHT22;32569;51.762;8.564;2022-10-17T13:48:18;20.80;99.90
15231;DHT22;32569;51.762;8.564;2022-10-17T13:50:48;20.80;99.90
15231;DHT22;32569;51.762;8.564;2022-10-17T13:53:18;20.90;99.90
15231;DHT22;32569;51.762;8.564;2022-10-17T13:55:59;20.90;99.90
15231;DHT22;32569;51.762;8.564;2022-10-17T13:58:31;20.90;99.90
15231;DHT22;32569;51.762;8.564;2022-10-17T14:01:05;20.80;99.90
15231;DHT22;32569;51.762;8.564;2022-10-17T14:03:32;20.80;99.90
15231;DHT22;32569;51.762;8.564;2022-10-17T14:06:02;20.80;99.90
15231;DHT22;32569;51.762;8.564;2022-10-17T14:08:30;20.80;99.90
15231;DHT22;32569;51.762;8.564;2022-10-17T14:10:58;20.80;99.90
15231;DHT22;32569;51.762;8.564;2022-10-17T14:13:26;20.90;99.90
15231;DHT22;32569;51.762;8.564;2022-10-17T14:15:59;20.80;99.90
15231;DHT22;32569;51.762;8.564;2022-10-17T14:18:29;20.80;99.90
15231;DHT22;32569;51.762;8.564;2022-10-17T14:20:57;20.80;99.90
15231;DHT22;32569;51.762;8.564;2022-10-17T14:23:33;20.80;99.90
15231;DHT22;32569;51.762;8.564;2022-10-17T14:26:04;20.80;99.90
15231;DHT22;32569;51.762;8.564;2022-10-17T14:28:31;20.80;99.90
15231;DHT22;32569;51.762;8.564;2022-10-17T14:31:11;20.80;99.90
15231;DHT22;32569;51.762;8.564;2022-10-17T14:33:44;20.70;99.90
15231;DHT22;32569;51.762;8.564;2022-10-17T14:36:11;20.70;99.90
15231;DHT22;32569;51.762;8.564;2022-10-17T14:38:44;20.70;99.90
15231;DHT22;32569;51.762;8.564;2022-10-17T14:41:14;20.70;99.90
15231;DHT22;32569;51.762;8.564;2022-10-17T14:43:42;20.60;99.90
15231;DHT22;32569;51.762;8.564;2022-10-17T14:46:14;20.60;99.90
15231;DHT22;32569;51.762;8.564;2022-10-17T14:48:41;20.50;99.90
15231;DHT22;32569;51.762;8.564;2022-10-17T14:51:10;20.40;99.90
15231;DHT22;32569;51.762;8.564;2022-10-17T14:53:39;20.40;99.90
15231;DHT22;32569;51.762;8.564;2022-10-17T14:56:21;20.40;99.90
15231;DHT22;32569;51.762;8.564;2022-10-17T14:58:48;20.30;99.90
15231;DHT22;32569;51.762;8.564;2022-10-17T15:01:18;20.30;99.90
15231;DHT22;32569;51.762;8.564;2022-10-17T15:03:45;20.30;99.90
15231;DHT22;32569;51.762;8.564;2022-10-17T15:06:17;20.30;99.90
15231;DHT22;32569;51.762;8.564;2022-10-17T15:08:45;20.30;99.90
15231;DHT22;32569;51.762;8.564;2022-10-17T15:11:11;20.20;99.90
15231;DHT22;32569;51.762;8.564;2022-10-17T15:13:38;20.20;99.90
15231;DHT22;32569;51.762;8.564;2022-10-17T15:16:09;20.20;99.90
15231;DHT22;32569;51.762;8.564;2022-10-17T15:18:40;20.20;99.90
15231;DHT22;32569;51.762;8.564;2022-10-17T15:21:10;20.10;99.90
15231;DHT22;32569;51.762;8.564;2022-10-17T15:23:38;20.10;99.90
15231;DHT22;32569;51.762;8.564;2022-10-17T15:26:12;20.10;99.90
15231;DHT22;32569;51.762;8.564;2022-10-17T15:28:38;20.10;99.90
15231;DHT22;32569;51.762;8.564;2022-10-17T15:31:07;20.10;99.90
15231;DHT22;32569;51.762;8.564;2022-10-17T15:33:34;20.20;99.90
15231;DHT22;32569;51.762;8.564;2022-10-17T15:36:03;20.20;99.90
15231;DHT22;32569;51.762;8.564;2022-10-17T15:38:30;20.20;99.90
15231;DHT22;32569;51.762;8.564;2022-10-17T15:40:57;20.20;99.90
15231;DHT22;32569;51.762;8.564;2022-10-17T15:43:23;20.20;99.90
15231;DHT22;32569;51.762;8.564;2022-10-17T15:45:50;20.20;99.90
15231;DHT22;32569;51.762;8.564;2022-10-17T15:48:21;20.20;99.90
15231;DHT22;32569;51.762;8.564;2022-10-17T15:50:51;20.20;99.90
15231;DHT22;32569;51.762;8.564;2022-10-17T15:53:19;20.30;99.90
15231;DHT22;32569;51.762;8.564;2022-10-17T15:55:46;20.30;99.90